sensor_id;sensor_type;location;lat;lon;timestamp;pressure;altitude;pressure_sealevel;temperature;humidity
54556;BME280;57291;37.520;15.106;2023-12-07T00:00:44;101087.19;;;12.25;69.82
54556;BME280;57291;37.520;15.106;2023-12-07T00:03:11;101092.13;;;12.23;69.97
54556;BME280;57291;37.520;15.106;2023-12-07T00:05:39;101091.91;;;12.19;70.23
54556;BME280;57291;37.520;15.106;2023-12-07T00:08:09;101093.03;;;12.18;70.15
54556;BME280;57291;37.520;15.106;2023-12-07T00:10:38;101094.94;;;12.17;70.39
54556;BME280;57291;37.520;15.106;2023-12-07T00:13:05;101094.13;;;12.17;70.76
54556;BME280;57291;37.520;15.106;2023-12-07T00:15:32;101085.13;;;12.16;70.72
54556;BME280;57291;37.520;15.106;2023-12-07T00:18:01;101087.59;;;12.18;70.87
54556;BME280;57291;37.520;15.106;2023-12-07T00:20:30;101092.44;;;12.21;71.02
54556;BME280;57291;37.520;15.106;2023-12-07T00:22:57;101088.00;;;12.25;70.86
54556;BME280;57291;37.520;15.106;2023-12-07T00:25:24;101079.03;;;12.25;70.65
54556;BME280;57291;37.520;15.106;2023-12-07T00:27:52;101088.59;;;12.22;70.90
54556;BME280;57291;37.520;15.106;2023-12-07T00:30:19;101084.53;;;12.19;70.92
54556;BME280;57291;37.520;15.106;2023-12-07T00:32:47;101076.16;;;12.16;70.74
54556;BME280;57291;37.520;15.106;2023-12-07T00:35:15;101078.66;;;12.12;70.96
54556;BME280;57291;37.520;15.106;2023-12-07T00:37:43;101075.13;;;12.12;70.92
54556;BME280;57291;37.520;15.106;2023-12-07T00:40:10;101078.47;;;12.09;70.89
54556;BME280;57291;37.520;15.106;2023-12-07T00:42:39;101084.72;;;12.09;71.13
54556;BME280;57291;37.520;15.106;2023-12-07T00:45:08;101080.59;;;12.12;70.92
54556;BME280;57291;37.520;15.106;2023-12-07T00:47:35;101077.34;;;12.10;71.11
54556;BME280;57291;37.520;15.106;2023-12-07T00:50:03;101089.84;;;12.11;71.29
54556;BME280;57291;37.520;15.106;2023-12-07T00:52:30;101092.56;;;12.11;71.36
54556;BME280;57291;37.520;15.106;2023-12-07T00:54:58;101095.91;;;12.08;71.35
54556;BME280;57291;37.520;15.106;2023-12-07T00:57:38;101085.09;;;12.03;71.55
54556;BME280;57291;37.520;15.106;2023-12-07T01:00:06;101093.63;;;11.96;72.11
54556;BME280;57291;37.520;15.106;2023-12-07T01:02:35;101095.03;;;11.93;72.25
54556;BME280;57291;37.520;15.106;2023-12-07T01:05:02;101096.19;;;11.87;72.60
54556;BME280;57291;37.520;15.106;2023-12-07T01:07:30;101104.13;;;11.84;72.92
54556;BME280;57291;37.520;15.106;2023-12-07T01:09:57;101103.63;;;11.82;73.13
54556;BME280;57291;37.520;15.106;2023-12-07T01:12:24;101103.09;;;11.80;73.46
54556;BME280;57291;37.520;15.106;2023-12-07T01:14:52;101103.16;;;11.74;73.39
54556;BME280;57291;37.520;15.106;2023-12-07T01:17:20;101093.16;;;11.70;73.44
54556;BME280;57291;37.520;15.106;2023-12-07T01:19:47;101091.81;;;11.67;73.81
54556;BME280;57291;37.520;15.106;2023-12-07T01:22:15;101084.78;;;11.66;74.05
54556;BME280;57291;37.520;15.106;2023-12-07T01:24:42;101086.38;;;11.67;74.02
54556;BME280;57291;37.520;15.106;2023-12-07T01:27:10;101090.44;;;11.70;74.22
54556;BME280;57291;37.520;15.106;2023-12-07T01:29:38;101095.06;;;11.69;74.14
54556;BME280;57291;37.520;15.106;2023-12-07T01:32:05;101100.00;;;11.67;74.02
54556;BME280;57291;37.520;15.106;2023-12-07T01:34:33;101097.56;;;11.66;74.47
54556;BME280;57291;37.520;15.106;2023-12-07T01:37:00;101101.09;;;11.66;74.58
54556;BME280;57291;37.520;15.106;2023-12-07T01:39:28;101103.03;;;11.66;74.53
54556;BME280;57291;37.520;15.106;2023-12-07T01:41:55;101097.00;;;11.69;75.08
54556;BME280;57291;37.520;15.106;2023-12-07T01:44:22;101094.94;;;11.80;74.93
54556;BME280;57291;37.520;15.106;2023-12-07T01:46:50;101099.44;;;11.89;74.57
54556;BME280;57291;37.520;15.106;2023-12-07T01:49:17;101107.94;;;11.88;74.35
54556;BME280;57291;37.520;15.106;2023-12-07T01:51:45;101095.72;;;11.85;74.15
54556;BME280;57291;37.520;15.106;2023-12-07T01:54:13;101089.78;;;11.78;74.07
54556;BME280;57291;37.520;15.106;2023-12-07T01:56:40;101085.16;;;11.79;74.34
54556;BME280;57291;37.520;15.106;2023-12-07T01:59:09;101084.94;;;11.75;74.37
54556;BME280;57291;37.520;15.106;2023-12-07T02:01:38;101086.91;;;11.69;74.65
54556;BME280;57291;37.520;15.106;2023-12-07T02:04:05;101089.91;;;11.68;74.88
54556;BME280;57291;37.520;15.106;2023-12-07T02:06:33;101091.53;;;11.69;74.99
54556;BME280;57291;37.520;15.106;2023-12-07T02:09:00;101086.91;;;11.69;75.40
54556;BME280;57291;37.520;15.106;2023-12-07T02:11:28;101084.47;;;11.68;75.16
54556;BME280;57291;37.520;15.106;2023-12-07T02:13:56;101087.28;;;11.63;75.22
54556;BME280;57291;37.520;15.106;2023-12-07T02:22:02;101079.75;;;11.55;75.83
54556;BME280;57291;37.520;15.106;2023-12-07T02:24:33;101072.47;;;11.50;76.27
54556;BME280;57291;37.520;15.106;2023-12-07T02:27:01;101075.50;;;11.48;76.53
54556;BME280;57291;37.520;15.106;2023-12-07T02:29:28;101076.56;;;11.47;76.66
54556;BME280;57291;37.520;15.106;2023-12-07T02:31:55;101072.53;;;11.45;76.50
54556;BME280;57291;37.520;15.106;2023-12-07T02:34:23;101066.06;;;11.41;76.75
54556;BME280;57291;37.520;15.106;2023-12-07T02:36:53;101061.78;;;11.35;76.59
54556;BME280;57291;37.520;15.106;2023-12-07T02:39:21;101065.91;;;11.32;76.94
54556;BME280;57291;37.520;15.106;2023-12-07T02:41:51;101070.28;;;11.28;76.90
54556;BME280;57291;37.520;15.106;2023-12-07T02:44:20;101085.22;;;11.31;77.22
54556;BME280;57291;37.520;15.106;2023-12-07T02:46:48;101078.41;;;11.33;76.41
54556;BME280;57291;37.520;15.106;2023-12-07T02:49:16;101086.03;;;11.31;75.97
54556;BME280;57291;37.520;15.106;2023-12-07T02:51:43;101084.44;;;11.30;75.87
54556;BME280;57291;37.520;15.106;2023-12-07T02:54:10;101077.97;;;11.26;75.81
54556;BME280;57291;37.520;15.106;2023-12-07T02:56:38;101074.19;;;11.22;75.72
54556;BME280;57291;37.520;15.106;2023-12-07T02:59:05;101075.06;;;11.17;75.63
54556;BME280;57291;37.520;15.106;2023-12-07T03:01:33;101067.78;;;11.13;76.03
54556;BME280;57291;37.520;15.106;2023-12-07T03:04:00;101065.91;;;11.08;76.06
54556;BME280;57291;37.520;15.106;2023-12-07T03:06:28;101061.88;;;11.06;76.06
54556;BME280;57291;37.520;15.106;2023-12-07T03:08:55;101068.72;;;11.03;76.23
54556;BME280;57291;37.520;15.106;2023-12-07T03:11:23;101075.75;;;11.04;76.29
54556;BME280;57291;37.520;15.106;2023-12-07T03:13:51;101077.66;;;11.03;75.98
54556;BME280;57291;37.520;15.106;2023-12-07T03:16:18;101068.72;;;11.03;75.94
54556;BME280;57291;37.520;15.106;2023-12-07T03:18:46;101070.28;;;11.09;74.63
54556;BME280;57291;37.520;15.106;2023-12-07T03:21:13;101067.78;;;11.13;74.29
54556;BME280;57291;37.520;15.106;2023-12-07T03:23:40;101075.81;;;11.23;72.11
54556;BME280;57291;37.520;15.106;2023-12-07T03:26:08;101076.03;;;11.26;70.77
54556;BME280;57291;37.520;15.106;2023-12-07T03:28:35;101079.25;;;11.28;69.97
54556;BME280;57291;37.520;15.106;2023-12-07T03:31:03;101080.69;;;11.26;69.40
54556;BME280;57291;37.520;15.106;2023-12-07T03:33:30;101078.00;;;11.21;69.33
54556;BME280;57291;37.520;15.106;2023-12-07T03:35:58;101084.38;;;11.11;69.46
54556;BME280;57291;37.520;15.106;2023-12-07T03:38:25;101083.66;;;11.06;69.63
54556;BME280;57291;37.520;15.106;2023-12-07T03:40:52;101077.44;;;11.00;69.70
54556;BME280;57291;37.520;15.106;2023-12-07T03:43:20;101071.31;;;10.89;70.03
54556;BME280;57291;37.520;15.106;2023-12-07T03:45:50;101071.66;;;10.83;70.42
54556;BME280;57291;37.520;15.106;2023-12-07T03:48:19;101074.41;;;10.77;70.87
54556;BME280;57291;37.520;15.106;2023-12-07T03:50:46;101072.56;;;10.73;71.60
54556;BME280;57291;37.520;15.106;2023-12-07T03:53:13;101074.22;;;10.69;72.02
54556;BME280;57291;37.520;15.106;2023-12-07T03:55:41;101074.78;;;10.66;72.77
54556;BME280;57291;37.520;15.106;2023-12-07T03:58:08;101074.84;;;10.61;72.71
54556;BME280;57291;37.520;15.106;2023-12-07T04:00:36;101075.69;;;10.56;72.80
54556;BME280;57291;37.520;15.106;2023-12-07T04:03:03;101070.59;;;10.49;73.01
54556;BME280;57291;37.520;15.106;2023-12-07T04:05:32;101072.56;;;10.44;73.46
54556;BME280;57291;37.520;15.106;2023-12-07T04:08:00;101074.53;;;10.38;73.72
54556;BME280;57291;37.520;15.106;2023-12-07T04:10:27;101076.19;;;10.34;74.30
54556;BME280;57291;37.520;15.106;2023-12-07T04:12:55;101078.91;;;10.34;75.45
54556;BME280;57291;37.520;15.106;2023-12-07T04:15:22;101080.53;;;10.35;75.69
54556;BME280;57291;37.520;15.106;2023-12-07T04:17:50;101075.88;;;10.36;75.77
54556;BME280;57291;37.520;15.106;2023-12-07T04:20:18;101079.16;;;10.38;76.15
54556;BME280;57291;37.520;15.106;2023-12-07T04:22:45;101090.00;;;10.38;76.41
54556;BME280;57291;37.520;15.106;2023-12-07T04:25:13;101088.09;;;10.38;76.61
54556;BME280;57291;37.520;15.106;2023-12-07T04:27:40;101081.00;;;10.42;76.45
54556;BME280;57291;37.520;15.106;2023-12-07T04:30:08;101088.34;;;10.42;76.40
54556;BME280;57291;37.520;15.106;2023-12-07T04:32:35;101088.66;;;10.40;76.32
54556;BME280;57291;37.520;15.106;2023-12-07T04:35:03;101090.78;;;10.43;75.62
54556;BME280;57291;37.520;15.106;2023-12-07T04:37:31;101086.56;;;10.56;73.41
54556;BME280;57291;37.520;15.106;2023-12-07T04:39:59;101096.03;;;10.64;72.44
54556;BME280;57291;37.520;15.106;2023-12-07T04:42:26;101091.63;;;10.68;71.88
54556;BME280;57291;37.520;15.106;2023-12-07T04:44:53;101096.78;;;10.69;71.65
54556;BME280;57291;37.520;15.106;2023-12-07T04:47:21;101100.03;;;10.71;71.64
54556;BME280;57291;37.520;15.106;2023-12-07T04:49:49;101097.03;;;10.73;71.75
54556;BME280;57291;37.520;15.106;2023-12-07T04:52:18;101101.38;;;10.74;71.89
54556;BME280;57291;37.520;15.106;2023-12-07T04:54:46;101099.22;;;10.71;71.69
54556;BME280;57291;37.520;15.106;2023-12-07T04:57:14;101106.28;;;10.72;71.24
54556;BME280;57291;37.520;15.106;2023-12-07T04:59:41;101101.13;;;10.70;71.37
54556;BME280;57291;37.520;15.106;2023-12-07T05:02:08;101101.31;;;10.79;68.98
54556;BME280;57291;37.520;15.106;2023-12-07T05:04:36;101110.81;;;10.82;68.71
54556;BME280;57291;37.520;15.106;2023-12-07T05:07:03;101114.63;;;10.80;68.63
54556;BME280;57291;37.520;15.106;2023-12-07T05:09:31;101119.28;;;10.75;69.26
54556;BME280;57291;37.520;15.106;2023-12-07T05:11:58;101129.38;;;10.74;69.77
54556;BME280;57291;37.520;15.106;2023-12-07T05:14:26;101130.16;;;10.75;71.84
54556;BME280;57291;37.520;15.106;2023-12-07T05:16:54;101129.41;;;10.69;71.82
54556;BME280;57291;37.520;15.106;2023-12-07T05:19:23;101136.72;;;10.74;72.82
54556;BME280;57291;37.520;15.106;2023-12-07T05:21:51;101138.38;;;10.70;73.14
54556;BME280;57291;37.520;15.106;2023-12-07T05:24:19;101140.03;;;10.66;73.28
54556;BME280;57291;37.520;15.106;2023-12-07T05:26:47;101149.06;;;10.61;73.46
54556;BME280;57291;37.520;15.106;2023-12-07T05:29:14;101145.53;;;10.61;74.01
54556;BME280;57291;37.520;15.106;2023-12-07T05:31:41;101151.25;;;10.59;74.34
54556;BME280;57291;37.520;15.106;2023-12-07T05:34:09;101152.91;;;10.55;74.48
54556;BME280;57291;37.520;15.106;2023-12-07T05:36:37;101148.34;;;10.50;74.65
54556;BME280;57291;37.520;15.106;2023-12-07T05:39:04;101150.00;;;10.46;74.54
54556;BME280;57291;37.520;15.106;2023-12-07T05:41:34;101149.16;;;10.46;74.86
54556;BME280;57291;37.520;15.106;2023-12-07T05:44:01;101155.16;;;10.48;74.84
54556;BME280;57291;37.520;15.106;2023-12-07T05:46:31;101156.25;;;10.47;74.66
54556;BME280;57291;37.520;15.106;2023-12-07T05:48:59;101145.56;;;10.55;74.03
54556;BME280;57291;37.520;15.106;2023-12-07T05:51:27;101148.00;;;10.57;73.93
54556;BME280;57291;37.520;15.106;2023-12-07T05:53:54;101150.97;;;10.61;73.76
54556;BME280;57291;37.520;15.106;2023-12-07T05:56:22;101147.69;;;10.64;73.31
54556;BME280;57291;37.520;15.106;2023-12-07T05:58:49;101152.00;;;10.65;73.23
54556;BME280;57291;37.520;15.106;2023-12-07T06:01:17;101152.25;;;10.68;73.19
54556;BME280;57291;37.520;15.106;2023-12-07T06:03:46;101153.03;;;10.74;72.68
54556;BME280;57291;37.520;15.106;2023-12-07T06:06:13;101160.28;;;10.84;71.74
54556;BME280;57291;37.520;15.106;2023-12-07T06:08:41;101162.31;;;10.97;70.47
54556;BME280;57291;37.520;15.106;2023-12-07T06:11:09;101165.75;;;11.08;69.87
54556;BME280;57291;37.520;15.106;2023-12-07T06:13:37;101165.72;;;11.13;69.48
54556;BME280;57291;37.520;15.106;2023-12-07T06:16:05;101165.38;;;11.19;69.40
54556;BME280;57291;37.520;15.106;2023-12-07T06:18:32;101172.06;;;11.27;68.82
54556;BME280;57291;37.520;15.106;2023-12-07T06:21:00;101164.56;;;11.43;66.89
54556;BME280;57291;37.520;15.106;2023-12-07T06:23:27;101172.69;;;11.67;65.56
54556;BME280;57291;37.520;15.106;2023-12-07T06:25:54;101173.09;;;11.79;65.15
54556;BME280;57291;37.520;15.106;2023-12-07T06:28:22;101168.94;;;11.87;64.43
54556;BME280;57291;37.520;15.106;2023-12-07T06:30:49;101179.25;;;11.90;64.43
54556;BME280;57291;37.520;15.106;2023-12-07T06:33:16;101179.19;;;11.95;64.36
54556;BME280;57291;37.520;15.106;2023-12-07T06:35:44;101185.34;;;12.01;64.57
54556;BME280;57291;37.520;15.106;2023-12-07T06:38:13;101177.13;;;12.06;64.39
54556;BME280;57291;37.520;15.106;2023-12-07T06:40:41;101176.00;;;12.07;64.43
54556;BME280;57291;37.520;15.106;2023-12-07T06:43:08;101176.53;;;12.09;64.54
54556;BME280;57291;37.520;15.106;2023-12-07T06:45:35;101178.09;;;12.15;65.18
54556;BME280;57291;37.520;15.106;2023-12-07T06:48:03;101188.19;;;12.14;65.55
54556;BME280;57291;37.520;15.106;2023-12-07T06:50:30;101195.25;;;12.15;66.02
54556;BME280;57291;37.520;15.106;2023-12-07T06:52:59;101185.69;;;12.18;66.34
54556;BME280;57291;37.520;15.106;2023-12-07T06:55:27;101182.38;;;12.21;66.67
54556;BME280;57291;37.520;15.106;2023-12-07T06:57:55;101180.06;;;12.28;66.83
54556;BME280;57291;37.520;15.106;2023-12-07T07:00:22;101187.06;;;12.34;67.05
54556;BME280;57291;37.520;15.106;2023-12-07T07:02:51;101198.91;;;12.43;67.42
54556;BME280;57291;37.520;15.106;2023-12-07T07:05:19;101196.91;;;12.49;67.13
54556;BME280;57291;37.520;15.106;2023-12-07T07:07:47;101200.97;;;12.52;67.31
54556;BME280;57291;37.520;15.106;2023-12-07T07:10:14;101202.00;;;12.56;67.84
54556;BME280;57291;37.520;15.106;2023-12-07T07:12:41;101201.84;;;12.66;67.58
54556;BME280;57291;37.520;15.106;2023-12-07T07:15:09;101201.66;;;12.76;67.64
54556;BME280;57291;37.520;15.106;2023-12-07T07:17:36;101206.13;;;12.86;67.55
54556;BME280;57291;37.520;15.106;2023-12-07T07:20:04;101210.00;;;12.99;67.26
54556;BME280;57291;37.520;15.106;2023-12-07T07:22:32;101202.75;;;13.08;67.18
54556;BME280;57291;37.520;15.106;2023-12-07T07:25:00;101211.78;;;13.22;67.28
54556;BME280;57291;37.520;15.106;2023-12-07T07:27:27;101208.28;;;13.35;66.90
54556;BME280;57291;37.520;15.106;2023-12-07T07:29:55;101215.59;;;13.40;66.21
54556;BME280;57291;37.520;15.106;2023-12-07T07:32:22;101212.34;;;13.52;66.13
54556;BME280;57291;37.520;15.106;2023-12-07T07:34:50;101207.78;;;13.61;65.72
54556;BME280;57291;37.520;15.106;2023-12-07T07:37:19;101210.31;;;13.71;65.29
54556;BME280;57291;37.520;15.106;2023-12-07T07:39:47;101212.03;;;13.81;63.19
54556;BME280;57291;37.520;15.106;2023-12-07T07:42:14;101213.34;;;13.83;62.16
54556;BME280;57291;37.520;15.106;2023-12-07T07:44:43;101217.59;;;13.90;61.44
54556;BME280;57291;37.520;15.106;2023-12-07T07:47:10;101230.75;;;13.88;61.00
54556;BME280;57291;37.520;15.106;2023-12-07T07:49:37;101226.09;;;13.88;60.97
54556;BME280;57291;37.520;15.106;2023-12-07T07:52:06;101221.34;;;13.94;60.95
54556;BME280;57291;37.520;15.106;2023-12-07T07:54:33;101224.25;;;13.97;60.90
54556;BME280;57291;37.520;15.106;2023-12-07T07:57:01;101226.38;;;14.00;60.73
54556;BME280;57291;37.520;15.106;2023-12-07T07:59:28;101229.31;;;14.04;60.87
54556;BME280;57291;37.520;15.106;2023-12-07T08:01:55;101227.09;;;14.06;60.59
54556;BME280;57291;37.520;15.106;2023-12-07T08:04:22;101224.13;;;14.16;60.58
54556;BME280;57291;37.520;15.106;2023-12-07T08:06:50;101233.03;;;14.22;60.47
54556;BME280;57291;37.520;15.106;2023-12-07T08:09:17;101241.91;;;14.27;60.28
54556;BME280;57291;37.520;15.106;2023-12-07T08:11:45;101241.50;;;14.34;60.21
54556;BME280;57291;37.520;15.106;2023-12-07T08:14:12;101239.97;;;14.42;60.41
54556;BME280;57291;37.520;15.106;2023-12-07T08:16:46;101248.25;;;14.50;60.13
54556;BME280;57291;37.520;15.106;2023-12-07T08:19:13;101239.78;;;14.52;59.91
54556;BME280;57291;37.520;15.106;2023-12-07T08:21:41;101248.16;;;14.56;59.84
54556;BME280;57291;37.520;15.106;2023-12-07T08:24:08;101247.84;;;14.57;59.84
54556;BME280;57291;37.520;15.106;2023-12-07T08:26:36;101253.28;;;14.71;59.94
54556;BME280;57291;37.520;15.106;2023-12-07T08:29:03;101245.63;;;14.82;59.44
54556;BME280;57291;37.520;15.106;2023-12-07T08:31:34;101256.81;;;14.94;59.38
54556;BME280;57291;37.520;15.106;2023-12-07T08:34:02;101252.81;;;15.00;58.90
54556;BME280;57291;37.520;15.106;2023-12-07T08:36:30;101262.09;;;15.13;58.87
54556;BME280;57291;37.520;15.106;2023-12-07T08:38:57;101259.75;;;15.29;58.47
54556;BME280;57291;37.520;15.106;2023-12-07T08:41:24;101261.44;;;15.38;58.04
54556;BME280;57291;37.520;15.106;2023-12-07T08:43:52;101268.38;;;15.44;57.72
54556;BME280;57291;37.520;15.106;2023-12-07T08:46:19;101267.16;;;15.59;57.51
54556;BME280;57291;37.520;15.106;2023-12-07T08:48:47;101271.38;;;15.65;56.71
54556;BME280;57291;37.520;15.106;2023-12-07T08:51:14;101268.56;;;15.79;56.35
54556;BME280;57291;37.520;15.106;2023-12-07T08:53:42;101265.56;;;15.89;56.32
54556;BME280;57291;37.520;15.106;2023-12-07T08:56:09;101261.25;;;16.06;55.80
54556;BME280;57291;37.520;15.106;2023-12-07T08:58:37;101270.59;;;16.22;55.34
54556;BME280;57291;37.520;15.106;2023-12-07T09:01:05;101269.34;;;16.37;54.97
54556;BME280;57291;37.520;15.106;2023-12-07T09:03:35;101272.25;;;16.40;55.14
54556;BME280;57291;37.520;15.106;2023-12-07T09:06:04;101266.75;;;16.40;54.25
54556;BME280;57291;37.520;15.106;2023-12-07T09:08:33;101275.16;;;16.44;54.46
54556;BME280;57291;37.520;15.106;2023-12-07T09:11:00;101273.88;;;16.59;54.06
54556;BME280;57291;37.520;15.106;2023-12-07T09:13:28;101285.00;;;16.71;53.66
54556;BME280;57291;37.520;15.106;2023-12-07T09:15:55;101290.53;;;16.80;53.17
54556;BME280;57291;37.520;15.106;2023-12-07T09:18:23;101287.81;;;16.88;52.75
54556;BME280;57291;37.520;15.106;2023-12-07T09:20:51;101285.84;;;16.89;53.37
54556;BME280;57291;37.520;15.106;2023-12-07T09:23:19;101288.09;;;16.87;53.89
54556;BME280;57291;37.520;15.106;2023-12-07T09:25:46;101281.63;;;16.74;54.08
54556;BME280;57291;37.520;15.106;2023-12-07T09:28:14;101285.69;;;16.85;53.88
54556;BME280;57291;37.520;15.106;2023-12-07T09:30:41;101282.44;;;16.75;53.37
54556;BME280;57291;37.520;15.106;2023-12-07T09:33:09;101280.53;;;16.93;53.14
54556;BME280;57291;37.520;15.106;2023-12-07T09:35:36;101281.13;;;17.16;53.11
54556;BME280;57291;37.520;15.106;2023-12-07T09:38:03;101282.13;;;17.02;52.43
54556;BME280;57291;37.520;15.106;2023-12-07T09:40:31;101275.16;;;17.14;52.75
54556;BME280;57291;37.520;15.106;2023-12-07T09:42:59;101275.69;;;16.90;53.76
54556;BME280;57291;37.520;15.106;2023-12-07T09:45:26;101275.69;;;16.98;54.00
54556;BME280;57291;37.520;15.106;2023-12-07T09:47:55;101276.44;;;17.16;55.04
54556;BME280;57291;37.520;15.106;2023-12-07T09:50:25;101284.41;;;16.83;55.33
54556;BME280;57291;37.520;15.106;2023-12-07T09:52:56;101276.16;;;17.09;53.96
54556;BME280;57291;37.520;15.106;2023-12-07T09:55:35;101277.94;;;16.87;53.29
54556;BME280;57291;37.520;15.106;2023-12-07T09:58:07;101276.47;;;16.99;53.84
54556;BME280;57291;37.520;15.106;2023-12-07T10:00:36;101271.13;;;17.11;52.74
54556;BME280;57291;37.520;15.106;2023-12-07T10:03:06;101260.97;;;17.11;52.82
54556;BME280;57291;37.520;15.106;2023-12-07T10:06:06;101262.19;;;17.31;51.55
54556;BME280;57291;37.520;15.106;2023-12-07T10:08:34;101260.03;;;17.46;52.17
54556;BME280;57291;37.520;15.106;2023-12-07T10:11:08;101254.31;;;17.59;52.17
54556;BME280;57291;37.520;15.106;2023-12-07T10:13:37;101245.84;;;17.73;52.20
54556;BME280;57291;37.520;15.106;2023-12-07T10:16:13;101247.28;;;17.88;51.13
54556;BME280;57291;37.520;15.106;2023-12-07T10:18:42;101241.41;;;17.98;51.13
54556;BME280;57291;37.520;15.106;2023-12-07T10:21:12;101236.41;;;17.92;49.92
54556;BME280;57291;37.520;15.106;2023-12-07T10:23:41;101233.13;;;17.98;50.18
54556;BME280;57291;37.520;15.106;2023-12-07T10:26:11;101224.75;;;17.95;51.07
54556;BME280;57291;37.520;15.106;2023-12-07T10:28:39;101215.19;;;17.63;51.45
54556;BME280;57291;37.520;15.106;2023-12-07T10:31:09;101216.97;;;17.29;52.58
54556;BME280;57291;37.520;15.106;2023-12-07T10:33:37;101214.28;;;17.03;53.94
54556;BME280;57291;37.520;15.106;2023-12-07T10:36:05;101207.78;;;17.07;54.36
54556;BME280;57291;37.520;15.106;2023-12-07T10:38:33;101198.81;;;16.90;55.14
54556;BME280;57291;37.520;15.106;2023-12-07T10:42:06;101197.06;;;16.85;55.80
54556;BME280;57291;37.520;15.106;2023-12-07T10:44:21;101197.22;;;16.88;55.79
54556;BME280;57291;37.520;15.106;2023-12-07T10:46:52;101195.56;;;16.87;56.62
54556;BME280;57291;37.520;15.106;2023-12-07T10:49:21;101200.56;;;16.94;55.79
54556;BME280;57291;37.520;15.106;2023-12-07T10:52:06;101199.94;;;16.88;55.77
54556;BME280;57291;37.520;15.106;2023-12-07T10:54:50;101200.25;;;16.87;55.57
54556;BME280;57291;37.520;15.106;2023-12-07T10:57:20;101204.59;;;17.05;56.64
54556;BME280;57291;37.520;15.106;2023-12-07T10:59:50;101209.94;;;17.02;55.83
54556;BME280;57291;37.520;15.106;2023-12-07T11:02:20;101209.31;;;16.87;54.74
54556;BME280;57291;37.520;15.106;2023-12-07T11:04:49;101198.16;;;16.84;56.27
54556;BME280;57291;37.520;15.106;2023-12-07T11:07:20;101205.75;;;16.87;54.74
54556;BME280;57291;37.520;15.106;2023-12-07T11:09:57;101206.25;;;16.72;54.88
54556;BME280;57291;37.520;15.106;2023-12-07T11:12:35;101200.91;;;16.84;55.73
54556;BME280;57291;37.520;15.106;2023-12-07T11:15:06;101194.47;;;16.80;56.32
54556;BME280;57291;37.520;15.106;2023-12-07T11:17:55;101192.06;;;16.78;56.53
54556;BME280;57291;37.520;15.106;2023-12-07T11:20:32;101187.50;;;16.74;55.87
54556;BME280;57291;37.520;15.106;2023-12-07T11:23:07;101181.88;;;16.79;57.96
54556;BME280;57291;37.520;15.106;2023-12-07T11:25:35;101182.34;;;16.81;57.90
54556;BME280;57291;37.520;15.106;2023-12-07T11:28:03;101176.72;;;16.69;58.00
54556;BME280;57291;37.520;15.106;2023-12-07T11:30:32;101175.06;;;16.68;56.57
54556;BME280;57291;37.520;15.106;2023-12-07T11:33:02;101173.97;;;16.69;57.45
54556;BME280;57291;37.520;15.106;2023-12-07T11:35:30;101171.53;;;16.67;58.98
54556;BME280;57291;37.520;15.106;2023-12-07T11:38:08;101169.75;;;16.80;57.42
54556;BME280;57291;37.520;15.106;2023-12-07T11:40:40;101164.94;;;16.77;58.70
54556;BME280;57291;37.520;15.106;2023-12-07T11:46:02;101164.56;;;16.87;60.01
54556;BME280;57291;37.520;15.106;2023-12-07T11:48:30;101171.81;;;17.00;58.67
54556;BME280;57291;37.520;15.106;2023-12-07T11:51:07;101169.41;;;16.99;58.05
54556;BME280;57291;37.520;15.106;2023-12-07T11:53:36;101173.66;;;16.79;58.42
54556;BME280;57291;37.520;15.106;2023-12-07T11:56:10;101164.44;;;16.75;59.04
54556;BME280;57291;37.520;15.106;2023-12-07T11:58:39;101161.38;;;16.85;60.10
54556;BME280;57291;37.520;15.106;2023-12-07T12:01:08;101158.47;;;16.81;59.69
54556;BME280;57291;37.520;15.106;2023-12-07T12:03:37;101164.25;;;16.88;61.17
54556;BME280;57291;37.520;15.106;2023-12-07T12:06:06;101163.97;;;16.81;60.07
54556;BME280;57291;37.520;15.106;2023-12-07T12:08:35;101157.97;;;16.88;59.25
54556;BME280;57291;37.520;15.106;2023-12-07T12:11:03;101164.56;;;16.87;58.95
54556;BME280;57291;37.520;15.106;2023-12-07T12:13:34;101161.53;;;16.88;59.88
54556;BME280;57291;37.520;15.106;2023-12-07T12:16:03;101162.47;;;16.93;59.22
54556;BME280;57291;37.520;15.106;2023-12-07T12:18:34;101165.38;;;16.96;59.84
54556;BME280;57291;37.520;15.106;2023-12-07T12:21:03;101164.34;;;17.09;60.41
54556;BME280;57291;37.520;15.106;2023-12-07T12:23:30;101163.78;;;16.86;59.73
54556;BME280;57291;37.520;15.106;2023-12-07T12:25:58;101176.41;;;16.79;60.31
54556;BME280;57291;37.520;15.106;2023-12-07T12:28:26;101171.88;;;16.48;60.37
54556;BME280;57291;37.520;15.106;2023-12-07T12:30:55;101171.72;;;16.18;61.53
54556;BME280;57291;37.520;15.106;2023-12-07T12:33:22;101175.59;;;16.00;62.55
54556;BME280;57291;37.520;15.106;2023-12-07T12:36:19;101153.63;;;15.74;63.20
54556;BME280;57291;37.520;15.106;2023-12-07T12:38:50;101156.34;;;15.74;62.87
54556;BME280;57291;37.520;15.106;2023-12-07T12:41:19;101167.00;;;15.76;60.90
54556;BME280;57291;37.520;15.106;2023-12-07T12:43:46;101160.59;;;16.06;60.10
54556;BME280;57291;37.520;15.106;2023-12-07T12:46:15;101163.63;;;16.48;58.60
54556;BME280;57291;37.520;15.106;2023-12-07T12:49:00;101159.28;;;16.82;58.25
54556;BME280;57291;37.520;15.106;2023-12-07T12:51:29;101152.16;;;16.63;58.54
54556;BME280;57291;37.520;15.106;2023-12-07T12:53:59;101159.28;;;16.56;60.16
54556;BME280;57291;37.520;15.106;2023-12-07T12:56:28;101164.47;;;16.40;60.89